sensor_id;sensor_type;location;lat;lon;timestamp;P1;durP1;ratioP1;P2;durP2;ratioP2
22531;SDS011;11432;46.924;7.114;2023-12-29T00:01:54;4.65;;;2.70;;
22531;SDS011;11432;46.924;7.114;2023-12-29T00:04:19;3.85;;;2.50;;
22531;SDS011;11432;46.924;7.114;2023-12-29T00:06:45;6.15;;;2.45;;
22531;SDS011;11432;46.924;7.114;2023-12-29T00:09:11;3.65;;;2.50;;
22531;SDS011;11432;46.924;7.114;2023-12-29T00:11:37;3.80;;;2.35;;
22531;SDS011;11432;46.924;7.114;2023-12-29T00:14:03;5.75;;;2.58;;
22531;SDS011;11432;46.924;7.114;2023-12-29T00:16:29;4.60;;;2.80;;
22531;SDS011;11432;46.924;7.114;2023-12-29T00:18:54;3.45;;;2.33;;
22531;SDS011;11432;46.924;7.114;2023-12-29T00:21:20;4.43;;;2.42;;
22531;SDS011;11432;46.924;7.114;2023-12-29T00:23:46;3.53;;;2.53;;
22531;SDS011;11432;46.924;7.114;2023-12-29T00:26:13;4.00;;;2.53;;
22531;SDS011;11432;46.924;7.114;2023-12-29T00:28:41;4.90;;;2.72;;
22531;SDS011;11432;46.924;7.114;2023-12-29T00:31:07;4.80;;;3.10;;
22531;SDS011;11432;46.924;7.114;2023-12-29T00:33:33;3.08;;;2.30;;
22531;SDS011;11432;46.924;7.114;2023-12-29T00:35:59;6.03;;;2.80;;
22531;SDS011;11432;46.924;7.114;2023-12-29T00:38:26;3.67;;;2.53;;
22531;SDS011;11432;46.924;7.114;2023-12-29T00:40:52;4.55;;;2.53;;
22531;SDS011;11432;46.924;7.114;2023-12-29T00:43:18;4.72;;;2.55;;
22531;SDS011;11432;46.924;7.114;2023-12-29T00:45:44;3.47;;;2.28;;
22531;SDS011;11432;46.924;7.114;2023-12-29T00:48:09;4.13;;;2.40;;
22531;SDS011;11432;46.924;7.114;2023-12-29T00:50:35;5.32;;;3.08;;
22531;SDS011;11432;46.924;7.114;2023-12-29T00:53:00;3.47;;;2.10;;
22531;SDS011;11432;46.924;7.114;2023-12-29T00:55:26;4.30;;;2.38;;
22531;SDS011;11432;46.924;7.114;2023-12-29T00:57:52;4.35;;;2.47;;
22531;SDS011;11432;46.924;7.114;2023-12-29T01:00:17;4.28;;;2.20;;
22531;SDS011;11432;46.924;7.114;2023-12-29T01:02:43;4.18;;;2.10;;
22531;SDS011;11432;46.924;7.114;2023-12-29T01:05:09;4.35;;;2.10;;
22531;SDS011;11432;46.924;7.114;2023-12-29T01:07:34;4.40;;;2.45;;
22531;SDS011;11432;46.924;7.114;2023-12-29T01:10:00;4.32;;;2.17;;
22531;SDS011;11432;46.924;7.114;2023-12-29T01:12:26;4.25;;;2.47;;
22531;SDS011;11432;46.924;7.114;2023-12-29T01:14:52;3.60;;;2.50;;
22531;SDS011;11432;46.924;7.114;2023-12-29T01:17:17;3.45;;;2.13;;
22531;SDS011;11432;46.924;7.114;2023-12-29T01:19:43;3.42;;;2.10;;
22531;SDS011;11432;46.924;7.114;2023-12-29T01:22:08;2.90;;;2.10;;
22531;SDS011;11432;46.924;7.114;2023-12-29T01:24:34;3.63;;;2.35;;
22531;SDS011;11432;46.924;7.114;2023-12-29T01:26:59;4.60;;;2.30;;
22531;SDS011;11432;46.924;7.114;2023-12-29T01:29:25;4.45;;;2.80;;
22531;SDS011;11432;46.924;7.114;2023-12-29T01:31:51;4.07;;;2.50;;
22531;SDS011;11432;46.924;7.114;2023-12-29T01:34:16;3.13;;;2.10;;
22531;SDS011;11432;46.924;7.114;2023-12-29T01:36:42;5.15;;;2.47;;
22531;SDS011;11432;46.924;7.114;2023-12-29T01:39:07;4.43;;;2.22;;
22531;SDS011;11432;46.924;7.114;2023-12-29T01:41:33;4.47;;;2.42;;
22531;SDS011;11432;46.924;7.114;2023-12-29T01:46:25;4.18;;;2.35;;
22531;SDS011;11432;46.924;7.114;2023-12-29T01:48:53;3.17;;;2.25;;
22531;SDS011;11432;46.924;7.114;2023-12-29T01:51:19;5.35;;;2.30;;
22531;SDS011;11432;46.924;7.114;2023-12-29T01:53:47;5.18;;;2.13;;
22531;SDS011;11432;46.924;7.114;2023-12-29T01:56:13;3.85;;;2.40;;
22531;SDS011;11432;46.924;7.114;2023-12-29T01:58:39;4.63;;;2.42;;
22531;SDS011;11432;46.924;7.114;2023-12-29T02:01:05;3.22;;;2.13;;
22531;SDS011;11432;46.924;7.114;2023-12-29T02:03:32;4.43;;;2.63;;
22531;SDS011;11432;46.924;7.114;2023-12-29T02:05:59;4.22;;;2.33;;
22531;SDS011;11432;46.924;7.114;2023-12-29T02:08:25;4.93;;;2.35;;
22531;SDS011;11432;46.924;7.114;2023-12-29T02:10:50;4.55;;;2.30;;
22531;SDS011;11432;46.924;7.114;2023-12-29T02:13:16;4.75;;;2.30;;
22531;SDS011;11432;46.924;7.114;2023-12-29T02:15:42;4.55;;;2.40;;
22531;SDS011;11432;46.924;7.114;2023-12-29T02:18:09;2.90;;;2.05;;
22531;SDS011;11432;46.924;7.114;2023-12-29T02:20:40;3.20;;;1.88;;
22531;SDS011;11432;46.924;7.114;2023-12-29T02:23:06;2.95;;;2.20;;
22531;SDS011;11432;46.924;7.114;2023-12-29T02:25:32;3.53;;;1.90;;
22531;SDS011;11432;46.924;7.114;2023-12-29T02:30:45;3.63;;;2.15;;
22531;SDS011;11432;46.924;7.114;2023-12-29T02:33:13;4.28;;;2.10;;
22531;SDS011;11432;46.924;7.114;2023-12-29T02:35:42;2.72;;;1.90;;
22531;SDS011;11432;46.924;7.114;2023-12-29T02:38:09;5.10;;;2.17;;
22531;SDS011;11432;46.924;7.114;2023-12-29T02:40:36;2.67;;;2.00;;
22531;SDS011;11432;46.924;7.114;2023-12-29T02:43:02;4.22;;;2.33;;
22531;SDS011;11432;46.924;7.114;2023-12-29T02:45:27;4.35;;;2.03;;
22531;SDS011;11432;46.924;7.114;2023-12-29T02:47:53;4.18;;;2.38;;
22531;SDS011;11432;46.924;7.114;2023-12-29T02:50:19;3.80;;;2.00;;
22531;SDS011;11432;46.924;7.114;2023-12-29T02:52:45;5.68;;;2.40;;
22531;SDS011;11432;46.924;7.114;2023-12-29T02:55:10;3.65;;;2.47;;
22531;SDS011;11432;46.924;7.114;2023-12-29T02:57:36;2.58;;;1.98;;
22531;SDS011;11432;46.924;7.114;2023-12-29T03:00:03;4.22;;;2.13;;
22531;SDS011;11432;46.924;7.114;2023-12-29T03:02:30;3.38;;;2.15;;
22531;SDS011;11432;46.924;7.114;2023-12-29T03:04:55;4.72;;;2.20;;
22531;SDS011;11432;46.924;7.114;2023-12-29T03:07:21;4.82;;;2.38;;
22531;SDS011;11432;46.924;7.114;2023-12-29T03:09:47;3.70;;;2.45;;
22531;SDS011;11432;46.924;7.114;2023-12-29T03:12:12;4.25;;;2.50;;
22531;SDS011;11432;46.924;7.114;2023-12-29T03:14:38;3.00;;;1.90;;
22531;SDS011;11432;46.924;7.114;2023-12-29T03:17:04;3.65;;;2.20;;
22531;SDS011;11432;46.924;7.114;2023-12-29T03:19:29;4.00;;;2.33;;
22531;SDS011;11432;46.924;7.114;2023-12-29T03:21:55;3.38;;;2.20;;
22531;SDS011;11432;46.924;7.114;2023-12-29T03:24:21;4.53;;;1.90;;
22531;SDS011;11432;46.924;7.114;2023-12-29T03:26:46;3.95;;;2.38;;
22531;SDS011;11432;46.924;7.114;2023-12-29T03:29:12;3.50;;;1.95;;
22531;SDS011;11432;46.924;7.114;2023-12-29T03:31:38;5.32;;;2.03;;
22531;SDS011;11432;46.924;7.114;2023-12-29T03:34:04;3.83;;;2.40;;
22531;SDS011;11432;46.924;7.114;2023-12-29T03:36:30;2.42;;;1.65;;
22531;SDS011;11432;46.924;7.114;2023-12-29T03:38:56;3.60;;;2.10;;
22531;SDS011;11432;46.924;7.114;2023-12-29T03:41:21;3.42;;;1.88;;
22531;SDS011;11432;46.924;7.114;2023-12-29T03:43:47;3.08;;;2.22;;
22531;SDS011;11432;46.924;7.114;2023-12-29T03:46:19;3.50;;;2.10;;
22531;SDS011;11432;46.924;7.114;2023-12-29T03:48:45;3.33;;;2.10;;
22531;SDS011;11432;46.924;7.114;2023-12-29T03:51:12;3.38;;;2.00;;
22531;SDS011;11432;46.924;7.114;2023-12-29T03:53:38;4.65;;;2.30;;
22531;SDS011;11432;46.924;7.114;2023-12-29T03:56:05;3.65;;;2.35;;
22531;SDS011;11432;46.924;7.114;2023-12-29T03:58:32;2.95;;;1.95;;
22531;SDS011;11432;46.924;7.114;2023-12-29T04:00:57;3.70;;;2.35;;
22531;SDS011;11432;46.924;7.114;2023-12-29T04:03:23;5.50;;;2.20;;
22531;SDS011;11432;46.924;7.114;2023-12-29T04:05:48;3.95;;;2.00;;
22531;SDS011;11432;46.924;7.114;2023-12-29T04:08:14;3.55;;;2.63;;
22531;SDS011;11432;46.924;7.114;2023-12-29T04:10:40;5.30;;;2.28;;
22531;SDS011;11432;46.924;7.114;2023-12-29T04:13:05;3.13;;;2.20;;
22531;SDS011;11432;46.924;7.114;2023-12-29T04:15:31;3.72;;;2.45;;
22531;SDS011;11432;46.924;7.114;2023-12-29T04:17:57;4.22;;;2.47;;
22531;SDS011;11432;46.924;7.114;2023-12-29T04:20:22;3.50;;;2.10;;
22531;SDS011;11432;46.924;7.114;2023-12-29T04:22:49;3.53;;;2.35;;
22531;SDS011;11432;46.924;7.114;2023-12-29T04:25:15;4.13;;;2.10;;
22531;SDS011;11432;46.924;7.114;2023-12-29T04:27:40;3.75;;;2.17;;
22531;SDS011;11432;46.924;7.114;2023-12-29T04:30:06;3.55;;;2.20;;
22531;SDS011;11432;46.924;7.114;2023-12-29T04:32:32;2.90;;;2.17;;
22531;SDS011;11432;46.924;7.114;2023-12-29T04:34:57;2.78;;;1.83;;
22531;SDS011;11432;46.924;7.114;2023-12-29T04:37:23;5.53;;;2.40;;
22531;SDS011;11432;46.924;7.114;2023-12-29T04:39:49;4.40;;;2.45;;
22531;SDS011;11432;46.924;7.114;2023-12-29T04:42:14;3.53;;;2.25;;
22531;SDS011;11432;46.924;7.114;2023-12-29T04:44:41;2.47;;;1.90;;
22531;SDS011;11432;46.924;7.114;2023-12-29T04:47:07;3.22;;;1.90;;
22531;SDS011;11432;46.924;7.114;2023-12-29T04:49:33;2.75;;;1.77;;
22531;SDS011;11432;46.924;7.114;2023-12-29T04:51:58;3.85;;;2.10;;
22531;SDS011;11432;46.924;7.114;2023-12-29T04:54:24;4.28;;;2.00;;
22531;SDS011;11432;46.924;7.114;2023-12-29T04:56:50;6.15;;;2.28;;
22531;SDS011;11432;46.924;7.114;2023-12-29T04:59:15;4.32;;;2.28;;
22531;SDS011;11432;46.924;7.114;2023-12-29T05:01:41;3.20;;;2.20;;
22531;SDS011;11432;46.924;7.114;2023-12-29T05:04:07;3.75;;;2.40;;
22531;SDS011;11432;46.924;7.114;2023-12-29T05:06:32;4.57;;;2.25;;
22531;SDS011;11432;46.924;7.114;2023-12-29T05:08:58;4.25;;;2.00;;
22531;SDS011;11432;46.924;7.114;2023-12-29T05:11:24;3.70;;;2.05;;
22531;SDS011;11432;46.924;7.114;2023-12-29T05:13:49;3.15;;;2.03;;
22531;SDS011;11432;46.924;7.114;2023-12-29T05:16:15;4.53;;;2.30;;
22531;SDS011;11432;46.924;7.114;2023-12-29T05:18:41;6.57;;;2.38;;
22531;SDS011;11432;46.924;7.114;2023-12-29T05:21:13;4.40;;;2.17;;
22531;SDS011;11432;46.924;7.114;2023-12-29T05:23:40;2.40;;;1.70;;
22531;SDS011;11432;46.924;7.114;2023-12-29T05:26:05;3.45;;;2.10;;
22531;SDS011;11432;46.924;7.114;2023-12-29T05:28:31;3.55;;;2.17;;
22531;SDS011;11432;46.924;7.114;2023-12-29T05:30:56;5.00;;;2.13;;
22531;SDS011;11432;46.924;7.114;2023-12-29T05:33:24;2.72;;;1.58;;
22531;SDS011;11432;46.924;7.114;2023-12-29T05:35:49;5.53;;;2.17;;
22531;SDS011;11432;46.924;7.114;2023-12-29T05:38:15;1.55;;;1.15;;
22531;SDS011;11432;46.924;7.114;2023-12-29T05:40:40;3.67;;;1.50;;
22531;SDS011;11432;46.924;7.114;2023-12-29T05:43:06;2.03;;;1.42;;
22531;SDS011;11432;46.924;7.114;2023-12-29T05:45:32;2.45;;;1.33;;
22531;SDS011;11432;46.924;7.114;2023-12-29T05:47:57;3.13;;;1.90;;
22531;SDS011;11432;46.924;7.114;2023-12-29T05:50:23;4.47;;;1.90;;
22531;SDS011;11432;46.924;7.114;2023-12-29T05:52:49;3.65;;;2.00;;
22531;SDS011;11432;46.924;7.114;2023-12-29T05:55:16;4.65;;;1.50;;
22531;SDS011;11432;46.924;7.114;2023-12-29T05:57:43;3.20;;;1.75;;
22531;SDS011;11432;46.924;7.114;2023-12-29T06:00:09;4.15;;;1.73;;
22531;SDS011;11432;46.924;7.114;2023-12-29T06:02:39;2.42;;;1.50;;
22531;SDS011;11432;46.924;7.114;2023-12-29T06:05:10;2.70;;;1.55;;
22531;SDS011;11432;46.924;7.114;2023-12-29T06:07:36;3.30;;;1.77;;
22531;SDS011;11432;46.924;7.114;2023-12-29T06:10:02;2.88;;;1.63;;
22531;SDS011;11432;46.924;7.114;2023-12-29T06:12:28;3.10;;;1.55;;
22531;SDS011;11432;46.924;7.114;2023-12-29T06:14:54;2.58;;;1.70;;
22531;SDS011;11432;46.924;7.114;2023-12-29T06:17:19;5.55;;;1.92;;
22531;SDS011;11432;46.924;7.114;2023-12-29T06:19:45;3.90;;;1.77;;
22531;SDS011;11432;46.924;7.114;2023-12-29T06:22:10;2.20;;;1.50;;
22531;SDS011;11432;46.924;7.114;2023-12-29T06:24:39;4.20;;;1.67;;
22531;SDS011;11432;46.924;7.114;2023-12-29T06:27:07;2.80;;;1.65;;
22531;SDS011;11432;46.924;7.114;2023-12-29T06:29:34;2.97;;;1.77;;
22531;SDS011;11432;46.924;7.114;2023-12-29T06:32:00;2.88;;;1.60;;
22531;SDS011;11432;46.924;7.114;2023-12-29T06:34:25;2.88;;;1.65;;
22531;SDS011;11432;46.924;7.114;2023-12-29T06:36:51;3.05;;;1.77;;
22531;SDS011;11432;46.924;7.114;2023-12-29T06:39:17;3.03;;;1.90;;
22531;SDS011;11432;46.924;7.114;2023-12-29T06:41:42;3.15;;;2.15;;
22531;SDS011;11432;46.924;7.114;2023-12-29T06:44:08;3.88;;;1.77;;
22531;SDS011;11432;46.924;7.114;2023-12-29T06:46:36;1.67;;;1.20;;
22531;SDS011;11432;46.924;7.114;2023-12-29T06:49:02;2.90;;;2.08;;
22531;SDS011;11432;46.924;7.114;2023-12-29T06:51:28;2.20;;;1.70;;
22531;SDS011;11432;46.924;7.114;2023-12-29T06:53:53;3.35;;;1.83;;
22531;SDS011;11432;46.924;7.114;2023-12-29T06:56:19;3.35;;;1.70;;
22531;SDS011;11432;46.924;7.114;2023-12-29T06:58:45;3.05;;;2.10;;
22531;SDS011;11432;46.924;7.114;2023-12-29T07:01:11;4.38;;;1.95;;
22531;SDS011;11432;46.924;7.114;2023-12-29T07:03:37;2.58;;;1.77;;
22531;SDS011;11432;46.924;7.114;2023-12-29T07:06:03;2.55;;;1.73;;
22531;SDS011;11432;46.924;7.114;2023-12-29T07:08:29;3.60;;;1.67;;
22531;SDS011;11432;46.924;7.114;2023-12-29T07:10:54;2.58;;;1.50;;
22531;SDS011;11432;46.924;7.114;2023-12-29T07:13:20;3.78;;;1.52;;
22531;SDS011;11432;46.924;7.114;2023-12-29T07:15:46;2.67;;;1.92;;
22531;SDS011;11432;46.924;7.114;2023-12-29T07:18:13;3.45;;;1.83;;
22531;SDS011;11432;46.924;7.114;2023-12-29T07:20:39;2.42;;;1.63;;
22531;SDS011;11432;46.924;7.114;2023-12-29T07:23:04;3.15;;;1.88;;
22531;SDS011;11432;46.924;7.114;2023-12-29T07:25:30;4.00;;;1.73;;
22531;SDS011;11432;46.924;7.114;2023-12-29T07:27:56;4.53;;;2.03;;
22531;SDS011;11432;46.924;7.114;2023-12-29T07:30:22;3.80;;;1.70;;
22531;SDS011;11432;46.924;7.114;2023-12-29T07:32:47;4.57;;;1.95;;
22531;SDS011;11432;46.924;7.114;2023-12-29T07:35:13;3.55;;;1.90;;
22531;SDS011;11432;46.924;7.114;2023-12-29T07:37:42;5.57;;;2.22;;
22531;SDS011;11432;46.924;7.114;2023-12-29T07:40:12;2.58;;;1.65;;
22531;SDS011;11432;46.924;7.114;2023-12-29T07:42:39;2.42;;;1.98;;
22531;SDS011;11432;46.924;7.114;2023-12-29T07:45:06;4.32;;;2.15;;
22531;SDS011;11432;46.924;7.114;2023-12-29T07:47:32;3.42;;;1.88;;
22531;SDS011;11432;46.924;7.114;2023-12-29T07:49:58;3.30;;;2.22;;
22531;SDS011;11432;46.924;7.114;2023-12-29T07:52:24;2.78;;;1.90;;
22531;SDS011;11432;46.924;7.114;2023-12-29T07:54:49;4.25;;;2.20;;
22531;SDS011;11432;46.924;7.114;2023-12-29T07:57:15;3.80;;;1.77;;
22531;SDS011;11432;46.924;7.114;2023-12-29T07:59:40;3.03;;;2.08;;
22531;SDS011;11432;46.924;7.114;2023-12-29T08:02:06;2.90;;;1.83;;
22531;SDS011;11432;46.924;7.114;2023-12-29T08:04:32;4.65;;;1.65;;
22531;SDS011;11432;46.924;7.114;2023-12-29T08:06:58;6.35;;;1.90;;
22531;SDS011;11432;46.924;7.114;2023-12-29T08:09:24;2.50;;;1.95;;
22531;SDS011;11432;46.924;7.114;2023-12-29T08:11:50;5.65;;;2.10;;
22531;SDS011;11432;46.924;7.114;2023-12-29T08:14:16;2.22;;;1.70;;
22531;SDS011;11432;46.924;7.114;2023-12-29T08:16:42;3.65;;;2.50;;
22531;SDS011;11432;46.924;7.114;2023-12-29T08:19:07;4.38;;;2.58;;
22531;SDS011;11432;46.924;7.114;2023-12-29T08:21:34;3.70;;;2.20;;
22531;SDS011;11432;46.924;7.114;2023-12-29T08:24:01;3.33;;;2.15;;
22531;SDS011;11432;46.924;7.114;2023-12-29T08:26:26;3.50;;;1.95;;
22531;SDS011;11432;46.924;7.114;2023-12-29T08:28:52;3.78;;;2.20;;
22531;SDS011;11432;46.924;7.114;2023-12-29T08:31:20;4.60;;;2.38;;
22531;SDS011;11432;46.924;7.114;2023-12-29T08:33:48;3.88;;;2.72;;
22531;SDS011;11432;46.924;7.114;2023-12-29T08:36:13;5.18;;;3.08;;
22531;SDS011;11432;46.924;7.114;2023-12-29T08:38:42;4.47;;;2.50;;
22531;SDS011;11432;46.924;7.114;2023-12-29T08:41:08;4.80;;;2.33;;
22531;SDS011;11432;46.924;7.114;2023-12-29T08:43:33;6.03;;;2.15;;
22531;SDS011;11432;46.924;7.114;2023-12-29T08:46:01;5.38;;;2.30;;
22531;SDS011;11432;46.924;7.114;2023-12-29T08:48:27;4.30;;;2.35;;
22531;SDS011;11432;46.924;7.114;2023-12-29T08:50:52;5.32;;;2.55;;
22531;SDS011;11432;46.924;7.114;2023-12-29T08:53:18;4.85;;;2.47;;
22531;SDS011;11432;46.924;7.114;2023-12-29T08:55:44;4.47;;;2.00;;
22531;SDS011;11432;46.924;7.114;2023-12-29T08:58:09;3.05;;;2.35;;
22531;SDS011;11432;46.924;7.114;2023-12-29T09:00:35;3.47;;;2.35;;
22531;SDS011;11432;46.924;7.114;2023-12-29T09:03:01;4.55;;;2.38;;
22531;SDS011;11432;46.924;7.114;2023-12-29T09:05:26;3.83;;;2.10;;
22531;SDS011;11432;46.924;7.114;2023-12-29T09:07:52;4.05;;;2.67;;
22531;SDS011;11432;46.924;7.114;2023-12-29T09:10:17;3.17;;;2.03;;
22531;SDS011;11432;46.924;7.114;2023-12-29T09:12:43;3.92;;;2.67;;
22531;SDS011;11432;46.924;7.114;2023-12-29T09:15:09;7.18;;;2.45;;
22531;SDS011;11432;46.924;7.114;2023-12-29T09:17:35;3.92;;;2.10;;
22531;SDS011;11432;46.924;7.114;2023-12-29T09:20:01;3.25;;;2.33;;
22531;SDS011;11432;46.924;7.114;2023-12-29T09:22:28;3.25;;;1.83;;
22531;SDS011;11432;46.924;7.114;2023-12-29T09:24:54;3.03;;;1.90;;
22531;SDS011;11432;46.924;7.114;2023-12-29T09:27:20;3.40;;;2.17;;
22531;SDS011;11432;46.924;7.114;2023-12-29T09:29:46;5.50;;;2.30;;
22531;SDS011;11432;46.924;7.114;2023-12-29T09:32:12;4.32;;;2.40;;
22531;SDS011;11432;46.924;7.114;2023-12-29T09:34:37;4.28;;;1.92;;
22531;SDS011;11432;46.924;7.114;2023-12-29T09:37:03;5.80;;;2.25;;
22531;SDS011;11432;46.924;7.114;2023-12-29T09:39:28;3.05;;;2.25;;
22531;SDS011;11432;46.924;7.114;2023-12-29T09:41:55;3.08;;;2.10;;
22531;SDS011;11432;46.924;7.114;2023-12-29T09:44:25;3.85;;;2.20;;
22531;SDS011;11432;46.924;7.114;2023-12-29T09:46:53;5.03;;;1.80;;
22531;SDS011;11432;46.924;7.114;2023-12-29T09:49:20;2.95;;;2.03;;
22531;SDS011;11432;46.924;7.114;2023-12-29T09:51:47;2.60;;;1.98;;
22531;SDS011;11432;46.924;7.114;2023-12-29T09:54:13;3.78;;;2.20;;
22531;SDS011;11432;46.924;7.114;2023-12-29T09:56:40;2.72;;;2.00;;
22531;SDS011;11432;46.924;7.114;2023-12-29T09:59:06;4.55;;;2.17;;
22531;SDS011;11432;46.924;7.114;2023-12-29T10:01:36;2.97;;;1.98;;
22531;SDS011;11432;46.924;7.114;2023-12-29T10:04:02;4.68;;;2.13;;
22531;SDS011;11432;46.924;7.114;2023-12-29T10:06:28;3.42;;;2.13;;
22531;SDS011;11432;46.924;7.114;2023-12-29T10:08:59;4.88;;;2.15;;
22531;SDS011;11432;46.924;7.114;2023-12-29T10:11:29;3.83;;;2.42;;
22531;SDS011;11432;46.924;7.114;2023-12-29T10:13:58;3.28;;;1.90;;
22531;SDS011;11432;46.924;7.114;2023-12-29T10:16:28;3.38;;;1.83;;
22531;SDS011;11432;46.924;7.114;2023-12-29T10:19:20;2.67;;;1.80;;
22531;SDS011;11432;46.924;7.114;2023-12-29T10:21:57;2.67;;;1.60;;
22531;SDS011;11432;46.924;7.114;2023-12-29T10:24:36;2.42;;;1.75;;
22531;SDS011;11432;46.924;7.114;2023-12-29T10:27:02;2.97;;;1.67;;
22531;SDS011;11432;46.924;7.114;2023-12-29T10:29:28;3.42;;;1.88;;
22531;SDS011;11432;46.924;7.114;2023-12-29T10:31:54;2.55;;;1.73;;
22531;SDS011;11432;46.924;7.114;2023-12-29T10:34:20;3.63;;;1.73;;
22531;SDS011;11432;46.924;7.114;2023-12-29T10:36:57;1.77;;;1.30;;
22531;SDS011;11432;46.924;7.114;2023-12-29T10:39:23;2.25;;;1.70;;
22531;SDS011;11432;46.924;7.114;2023-12-29T10:41:50;3.90;;;1.85;;
22531;SDS011;11432;46.924;7.114;2023-12-29T10:44:27;2.55;;;1.65;;
22531;SDS011;11432;46.924;7.114;2023-12-29T10:46:53;2.92;;;1.90;;
22531;SDS011;11432;46.924;7.114;2023-12-29T10:49:18;3.20;;;1.60;;
22531;SDS011;11432;46.924;7.114;2023-12-29T10:51:44;4.32;;;2.05;;
22531;SDS011;11432;46.924;7.114;2023-12-29T10:54:13;3.35;;;1.80;;
22531;SDS011;11432;46.924;7.114;2023-12-29T10:56:47;3.60;;;1.90;;
22531;SDS011;11432;46.924;7.114;2023-12-29T10:59:12;3.88;;;1.55;;
22531;SDS011;11432;46.924;7.114;2023-12-29T11:01:38;2.63;;;1.58;;
22531;SDS011;11432;46.924;7.114;2023-12-29T11:04:05;2.03;;;1.60;;
22531;SDS011;11432;46.924;7.114;2023-12-29T11:06:41;4.57;;;2.25;;
22531;SDS011;11432;46.924;7.114;2023-12-29T11:09:10;2.70;;;1.52;;
22531;SDS011;11432;46.924;7.114;2023-12-29T11:11:36;3.03;;;1.30;;
22531;SDS011;11432;46.924;7.114;2023-12-29T11:14:02;2.00;;;1.42;;
22531;SDS011;11432;46.924;7.114;2023-12-29T11:16:29;3.38;;;1.67;;
22531;SDS011;11432;46.924;7.114;2023-12-29T11:18:56;1.88;;;1.17;;
22531;SDS011;11432;46.924;7.114;2023-12-29T11:21:23;4.10;;;1.75;;
22531;SDS011;11432;46.924;7.114;2023-12-29T11:23:51;2.58;;;1.63;;
22531;SDS011;11432;46.924;7.114;2023-12-29T11:26:17;2.95;;;1.70;;
22531;SDS011;11432;46.924;7.114;2023-12-29T11:28:46;2.25;;;1.45;;
22531;SDS011;11432;46.924;7.114;2023-12-29T11:31:14;4.25;;;1.90;;
22531;SDS011;11432;46.924;7.114;2023-12-29T11:33:43;2.53;;;1.40;;
22531;SDS011;11432;46.924;7.114;2023-12-29T11:36:33;2.75;;;1.73;;
22531;SDS011;11432;46.924;7.114;2023-12-29T11:39:10;2.88;;;1.60;;
22531;SDS011;11432;46.924;7.114;2023-12-29T11:41:52;1.67;;;1.40;;
22531;SDS011;11432;46.924;7.114;2023-12-29T11:44:27;3.20;;;1.30;;
22531;SDS011;11432;46.924;7.114;2023-12-29T11:46:55;1.98;;;1.40;;
22531;SDS011;11432;46.924;7.114;2023-12-29T11:49:22;3.17;;;1.35;;
22531;SDS011;11432;46.924;7.114;2023-12-29T11:51:48;2.10;;;1.45;;
22531;SDS011;11432;46.924;7.114;2023-12-29T11:54:24;2.08;;;0.98;;
22531;SDS011;11432;46.924;7.114;2023-12-29T11:56:52;1.63;;;1.17;;
22531;SDS011;11432;46.924;7.114;2023-12-29T11:59:19;1.75;;;1.33;;
22531;SDS011;11432;46.924;7.114;2023-12-29T12:01:47;2.58;;;1.40;;
22531;SDS011;11432;46.924;7.114;2023-12-29T12:04:35;1.58;;;0.80;;
22531;SDS011;11432;46.924;7.114;2023-12-29T12:07:12;2.28;;;1.10;;
22531;SDS011;11432;46.924;7.114;2023-12-29T12:09:38;2.15;;;1.20;;
22531;SDS011;11432;46.924;7.114;2023-12-29T12:12:04;2.00;;;1.48;;
22531;SDS011;11432;46.924;7.114;2023-12-29T12:14:46;2.97;;;1.52;;
22531;SDS011;11432;46.924;7.114;2023-12-29T12:17:49;2.15;;;1.48;;
22531;SDS011;11432;46.924;7.114;2023-12-29T12:20:08;1.48;;;0.93;;
22531;SDS011;11432;46.924;7.114;2023-12-29T12:22:34;2.15;;;1.30;;
22531;SDS011;11432;46.924;7.114;2023-12-29T12:25:01;2.47;;;1.38;;
22531;SDS011;11432;46.924;7.114;2023-12-29T12:27:28;1.83;;;1.30;;
22531;SDS011;11432;46.924;7.114;2023-12-29T12:29:55;1.85;;;1.30;;
22531;SDS011;11432;46.924;7.114;2023-12-29T12:32:23;1.65;;;1.25;;
22531;SDS011;11432;46.924;7.114;2023-12-29T12:34:50;1.33;;;1.23;;
22531;SDS011;11432;46.924;7.114;2023-12-29T12:37:23;1.95;;;1.40;;
22531;SDS011;11432;46.924;7.114;2023-12-29T12:39:50;1.70;;;1.25;;
22531;SDS011;11432;46.924;7.114;2023-12-29T12:42:16;1.98;;;1.10;;
22531;SDS011;11432;46.924;7.114;2023-12-29T12:44:47;5.60;;;1.30;;
22531;SDS011;11432;46.924;7.114;2023-12-29T12:47:16;2.33;;;1.23;;
22531;SDS011;11432;46.924;7.114;2023-12-29T12:49:48;2.38;;;1.10;;
22531;SDS011;11432;46.924;7.114;2023-12-29T12:52:14;1.60;;;0.90;;
22531;SDS011;11432;46.924;7.114;2023-12-29T12:54:40;1.35;;;0.85;;
22531;SDS011;11432;46.924;7.114;2023-12-29T12:57:06;3.10;;;1.30;;
22531;SDS011;11432;46.924;7.114;2023-12-29T12:59:32;1.27;;;0.93;;
22531;SDS011;11432;46.924;7.114;2023-12-29T13:01:58;1.60;;;1.20;;
22531;SDS011;11432;46.924;7.114;2023-12-29T13:04:23;1.30;;;0.98;;
22531;SDS011;11432;46.924;7.114;2023-12-29T13:06:49;1.42;;;1.00;;
22531;SDS011;11432;46.924;7.114;2023-12-29T13:09:15;0.63;;;0.32;;
22531;SDS011;11432;46.924;7.114;2023-12-29T13:11:44;1.30;;;1.00;;
22531;SDS011;11432;46.924;7.114;2023-12-29T13:14:19;1.95;;;1.10;;
22531;SDS011;11432;46.924;7.114;2023-12-29T13:16:47;2.22;;;1.35;;
22531;SDS011;11432;46.924;7.114;2023-12-29T13:19:21;1.33;;;0.93;;
22531;SDS011;11432;46.924;7.114;2023-12-29T13:21:52;1.88;;;1.10;;
22531;SDS011;11432;46.924;7.114;2023-12-29T13:24:20;2.13;;;1.20;;
22531;SDS011;11432;46.924;7.114;2023-12-29T13:26:50;2.25;;;1.35;;
22531;SDS011;11432;46.924;7.114;2023-12-29T13:29:21;4.80;;;1.20;;
22531;SDS011;11432;46.924;7.114;2023-12-29T13:31:50;1.58;;;1.20;;
22531;SDS011;11432;46.924;7.114;2023-12-29T13:34:19;1.67;;;1.23;;
22531;SDS011;11432;46.924;7.114;2023-12-29T13:36:50;2.20;;;1.20;;
22531;SDS011;11432;46.924;7.114;2023-12-29T13:42:15;2.70;;;1.33;;
22531;SDS011;11432;46.924;7.114;2023-12-29T13:44:42;2.22;;;0.98;;
22531;SDS011;11432;46.924;7.114;2023-12-29T13:47:09;2.42;;;1.25;;
22531;SDS011;11432;46.924;7.114;2023-12-29T13:49:35;2.15;;;1.10;;
22531;SDS011;11432;46.924;7.114;2023-12-29T13:52:02;1.17;;;0.90;;
22531;SDS011;11432;46.924;7.114;2023-12-29T13:54:28;2.53;;;1.30;;
22531;SDS011;11432;46.924;7.114;2023-12-29T13:56:54;2.20;;;1.27;;
22531;SDS011;11432;46.924;7.114;2023-12-29T13:59:30;3.50;;;1.63;;
22531;SDS011;11432;46.924;7.114;2023-12-29T14:01:59;1.67;;;1.07;;
22531;SDS011;11432;46.924;7.114;2023-12-29T14:04:48;1.70;;;1.17;;
22531;SDS011;11432;46.924;7.114;2023-12-29T14:07:14;1.50;;;1.00;;
22531;SDS011;11432;46.924;7.114;2023-12-29T14:09:44;1.27;;;1.02;;
22531;SDS011;11432;46.924;7.114;2023-12-29T14:12:10;2.35;;;1.30;;
22531;SDS011;11432;46.924;7.114;2023-12-29T14:14:35;2.08;;;1.20;;
22531;SDS011;11432;46.924;7.114;2023-12-29T14:17:01;2.65;;;1.30;;
22531;SDS011;11432;46.924;7.114;2023-12-29T14:19:33;2.80;;;1.23;;
22531;SDS011;11432;46.924;7.114;2023-12-29T14:22:00;2.13;;;1.40;;
22531;SDS011;11432;46.924;7.114;2023-12-29T14:24:26;1.90;;;1.20;;
22531;SDS011;11432;46.924;7.114;2023-12-29T14:29:17;2.17;;;1.38;;
22531;SDS011;11432;46.924;7.114;2023-12-29T14:31:43;1.73;;;1.30;;
22531;SDS011;11432;46.924;7.114;2023-12-29T14:34:10;1.90;;;1.10;;
22531;SDS011;11432;46.924;7.114;2023-12-29T14:36:37;3.30;;;1.42;;
22531;SDS011;11432;46.924;7.114;2023-12-29T14:39:04;2.10;;;1.10;;
22531;SDS011;11432;46.924;7.114;2023-12-29T14:41:31;3.60;;;1.30;;
22531;SDS011;11432;46.924;7.114;2023-12-29T14:43:57;1.38;;;0.90;;
22531;SDS011;11432;46.924;7.114;2023-12-29T14:46:23;3.67;;;1.13;;
22531;SDS011;11432;46.924;7.114;2023-12-29T14:48:48;1.88;;;1.10;;
22531;SDS011;11432;46.924;7.114;2023-12-29T14:51:14;2.53;;;1.17;;
22531;SDS011;11432;46.924;7.114;2023-12-29T14:53:47;2.00;;;1.00;;
22531;SDS011;11432;46.924;7.114;2023-12-29T14:56:14;1.58;;;1.10;;
22531;SDS011;11432;46.924;7.114;2023-12-29T14:58:41;2.85;;;1.13;;